sensor_id;sensor_type;location;lat;lon;timestamp;P1;durP1;ratioP1;P2;durP2;ratioP2
28958;SDS011;16066;0.000;0.000;2023-04-26T00:02:21;17.83;;;11.90;;
28958;SDS011;16066;0.000;0.000;2023-04-26T00:04:50;17.97;;;12.90;;
28958;SDS011;16066;0.000;0.000;2023-04-26T00:07:19;16.90;;;13.03;;
28958;SDS011;16066;0.000;0.000;2023-04-26T00:09:49;17.03;;;12.70;;
28958;SDS011;16066;0.000;0.000;2023-04-26T00:12:16;15.77;;;11.90;;
28958;SDS011;16066;0.000;0.000;2023-04-26T00:14:42;18.40;;;12.70;;
28958;SDS011;16066;0.000;0.000;2023-04-26T00:17:07;20.07;;;13.20;;
28958;SDS011;16066;0.000;0.000;2023-04-26T00:19:33;19.50;;;13.13;;
28958;SDS011;16066;0.000;0.000;2023-04-26T00:21:59;19.13;;;13.60;;
28958;SDS011;16066;0.000;0.000;2023-04-26T00:24:24;18.10;;;12.87;;
28958;SDS011;16066;0.000;0.000;2023-04-26T00:26:52;19.10;;;13.47;;
28958;SDS011;16066;0.000;0.000;2023-04-26T00:29:21;21.40;;;14.20;;
28958;SDS011;16066;0.000;0.000;2023-04-26T00:31:46;22.63;;;15.27;;
28958;SDS011;16066;0.000;0.000;2023-04-26T00:34:12;19.57;;;14.03;;
28958;SDS011;16066;0.000;0.000;2023-04-26T00:36:37;23.17;;;15.20;;
28958;SDS011;16066;0.000;0.000;2023-04-26T00:39:03;22.60;;;14.53;;
28958;SDS011;16066;0.000;0.000;2023-04-26T00:41:28;22.87;;;15.13;;
28958;SDS011;16066;0.000;0.000;2023-04-26T00:43:54;19.13;;;14.30;;
28958;SDS011;16066;0.000;0.000;2023-04-26T00:46:20;19.90;;;13.97;;
28958;SDS011;16066;0.000;0.000;2023-04-26T00:48:46;22.30;;;15.10;;
28958;SDS011;16066;0.000;0.000;2023-04-26T00:51:12;22.77;;;14.93;;
28958;SDS011;16066;0.000;0.000;2023-04-26T00:53:39;20.80;;;14.50;;
28958;SDS011;16066;0.000;0.000;2023-04-26T00:56:06;20.20;;;14.30;;
28958;SDS011;16066;0.000;0.000;2023-04-26T00:58:33;22.77;;;14.83;;
28958;SDS011;16066;0.000;0.000;2023-04-26T01:01:00;24.53;;;15.77;;
28958;SDS011;16066;0.000;0.000;2023-04-26T01:03:26;21.47;;;14.90;;
28958;SDS011;16066;0.000;0.000;2023-04-26T01:05:52;25.47;;;15.83;;
28958;SDS011;16066;0.000;0.000;2023-04-26T01:08:17;20.73;;;15.20;;
28958;SDS011;16066;0.000;0.000;2023-04-26T01:10:45;21.53;;;15.10;;
28958;SDS011;16066;0.000;0.000;2023-04-26T01:13:12;23.40;;;16.60;;
28958;SDS011;16066;0.000;0.000;2023-04-26T01:15:45;20.90;;;14.60;;
28958;SDS011;16066;0.000;0.000;2023-04-26T01:18:11;24.83;;;16.53;;
28958;SDS011;16066;0.000;0.000;2023-04-26T01:20:38;21.40;;;14.90;;
28958;SDS011;16066;0.000;0.000;2023-04-26T01:23:04;23.30;;;16.20;;
28958;SDS011;16066;0.000;0.000;2023-04-26T01:25:30;28.43;;;17.63;;
28958;SDS011;16066;0.000;0.000;2023-04-26T01:27:56;22.43;;;15.37;;
28958;SDS011;16066;0.000;0.000;2023-04-26T01:30:21;24.10;;;16.00;;
28958;SDS011;16066;0.000;0.000;2023-04-26T01:32:47;24.83;;;16.00;;
28958;SDS011;16066;0.000;0.000;2023-04-26T01:35:12;20.93;;;15.03;;
28958;SDS011;16066;0.000;0.000;2023-04-26T01:37:38;23.70;;;16.00;;
28958;SDS011;16066;0.000;0.000;2023-04-26T01:40:03;24.10;;;16.17;;
28958;SDS011;16066;0.000;0.000;2023-04-26T01:42:32;23.10;;;16.60;;
28958;SDS011;16066;0.000;0.000;2023-04-26T01:44:58;25.13;;;17.23;;
28958;SDS011;16066;0.000;0.000;2023-04-26T01:47:23;25.60;;;17.07;;
28958;SDS011;16066;0.000;0.000;2023-04-26T01:49:50;20.60;;;15.10;;
28958;SDS011;16066;0.000;0.000;2023-04-26T01:52:16;23.30;;;15.70;;
28958;SDS011;16066;0.000;0.000;2023-04-26T01:54:41;26.43;;;17.03;;
28958;SDS011;16066;0.000;0.000;2023-04-26T01:57:07;22.33;;;15.63;;
28958;SDS011;16066;0.000;0.000;2023-04-26T01:59:33;26.83;;;16.90;;
28958;SDS011;16066;0.000;0.000;2023-04-26T02:01:58;24.53;;;16.77;;
28958;SDS011;16066;0.000;0.000;2023-04-26T02:04:24;27.00;;;17.67;;
28958;SDS011;16066;0.000;0.000;2023-04-26T02:06:50;27.47;;;17.40;;
28958;SDS011;16066;0.000;0.000;2023-04-26T02:09:16;22.53;;;15.90;;
28958;SDS011;16066;0.000;0.000;2023-04-26T02:11:42;24.23;;;16.90;;
28958;SDS011;16066;0.000;0.000;2023-04-26T02:14:07;25.60;;;17.40;;
28958;SDS011;16066;0.000;0.000;2023-04-26T02:16:33;22.80;;;16.07;;
28958;SDS011;16066;0.000;0.000;2023-04-26T02:18:59;24.70;;;17.30;;
28958;SDS011;16066;0.000;0.000;2023-04-26T02:21:24;25.30;;;17.70;;
28958;SDS011;16066;0.000;0.000;2023-04-26T02:23:52;25.60;;;16.80;;
28958;SDS011;16066;0.000;0.000;2023-04-26T02:26:17;23.93;;;16.90;;
28958;SDS011;16066;0.000;0.000;2023-04-26T02:28:43;24.53;;;16.53;;
28958;SDS011;16066;0.000;0.000;2023-04-26T02:31:08;25.60;;;16.97;;
28958;SDS011;16066;0.000;0.000;2023-04-26T02:33:35;25.00;;;17.60;;
28958;SDS011;16066;0.000;0.000;2023-04-26T02:36:03;25.60;;;18.43;;
28958;SDS011;16066;0.000;0.000;2023-04-26T02:38:31;24.20;;;17.50;;
28958;SDS011;16066;0.000;0.000;2023-04-26T02:41:01;25.10;;;16.53;;
28958;SDS011;16066;0.000;0.000;2023-04-26T02:43:27;24.77;;;17.13;;
28958;SDS011;16066;0.000;0.000;2023-04-26T02:45:53;25.03;;;16.87;;
28958;SDS011;16066;0.000;0.000;2023-04-26T02:48:19;27.97;;;15.73;;
28958;SDS011;16066;0.000;0.000;2023-04-26T02:50:48;24.80;;;16.87;;
28958;SDS011;16066;0.000;0.000;2023-04-26T02:53:14;26.40;;;17.10;;
28958;SDS011;16066;0.000;0.000;2023-04-26T02:55:42;26.10;;;17.10;;
28958;SDS011;16066;0.000;0.000;2023-04-26T02:58:07;21.90;;;15.43;;
28958;SDS011;16066;0.000;0.000;2023-04-26T03:00:33;27.77;;;18.03;;
28958;SDS011;16066;0.000;0.000;2023-04-26T03:02:59;22.60;;;16.33;;
28958;SDS011;16066;0.000;0.000;2023-04-26T03:05:24;22.07;;;15.50;;
28958;SDS011;16066;0.000;0.000;2023-04-26T03:07:50;25.03;;;16.80;;
28958;SDS011;16066;0.000;0.000;2023-04-26T03:10:16;22.13;;;15.43;;
28958;SDS011;16066;0.000;0.000;2023-04-26T03:12:41;20.60;;;15.33;;
28958;SDS011;16066;0.000;0.000;2023-04-26T03:15:07;23.50;;;15.40;;
28958;SDS011;16066;0.000;0.000;2023-04-26T03:17:33;23.40;;;16.00;;
28958;SDS011;16066;0.000;0.000;2023-04-26T03:19:59;24.83;;;16.90;;
28958;SDS011;16066;0.000;0.000;2023-04-26T03:22:24;22.60;;;15.63;;
28958;SDS011;16066;0.000;0.000;2023-04-26T03:24:49;24.90;;;16.37;;
28958;SDS011;16066;0.000;0.000;2023-04-26T03:27:15;24.20;;;17.00;;
28958;SDS011;16066;0.000;0.000;2023-04-26T03:29:41;25.53;;;16.63;;
28958;SDS011;16066;0.000;0.000;2023-04-26T03:32:06;24.77;;;16.60;;
28958;SDS011;16066;0.000;0.000;2023-04-26T03:34:32;24.93;;;16.17;;
28958;SDS011;16066;0.000;0.000;2023-04-26T03:36:57;23.83;;;16.10;;
28958;SDS011;16066;0.000;0.000;2023-04-26T03:39:23;23.57;;;17.23;;
28958;SDS011;16066;0.000;0.000;2023-04-26T03:41:48;24.83;;;16.83;;
28958;SDS011;16066;0.000;0.000;2023-04-26T03:44:14;24.43;;;16.20;;
28958;SDS011;16066;0.000;0.000;2023-04-26T03:46:40;24.80;;;16.67;;
28958;SDS011;16066;0.000;0.000;2023-04-26T03:49:05;25.80;;;16.20;;
28958;SDS011;16066;0.000;0.000;2023-04-26T03:51:31;24.30;;;16.50;;
28958;SDS011;16066;0.000;0.000;2023-04-26T03:53:59;24.30;;;15.77;;
28958;SDS011;16066;0.000;0.000;2023-04-26T03:56:25;22.20;;;15.70;;
28958;SDS011;16066;0.000;0.000;2023-04-26T03:58:51;28.90;;;16.87;;
28958;SDS011;16066;0.000;0.000;2023-04-26T04:01:16;23.20;;;15.60;;
28958;SDS011;16066;0.000;0.000;2023-04-26T04:03:43;25.17;;;16.67;;
28958;SDS011;16066;0.000;0.000;2023-04-26T04:06:08;21.33;;;15.23;;
28958;SDS011;16066;0.000;0.000;2023-04-26T04:08:34;25.30;;;16.70;;
28958;SDS011;16066;0.000;0.000;2023-04-26T04:10:59;25.97;;;15.23;;
28958;SDS011;16066;0.000;0.000;2023-04-26T04:13:25;22.90;;;14.80;;
28958;SDS011;16066;0.000;0.000;2023-04-26T04:15:51;25.30;;;16.03;;
28958;SDS011;16066;0.000;0.000;2023-04-26T04:18:17;22.23;;;16.67;;
28958;SDS011;16066;0.000;0.000;2023-04-26T04:20:42;24.80;;;16.17;;
28958;SDS011;16066;0.000;0.000;2023-04-26T04:23:08;18.90;;;13.63;;
28958;SDS011;16066;0.000;0.000;2023-04-26T04:25:33;21.63;;;14.90;;
28958;SDS011;16066;0.000;0.000;2023-04-26T04:28:02;22.07;;;15.17;;
28958;SDS011;16066;0.000;0.000;2023-04-26T04:30:28;22.17;;;15.27;;
28958;SDS011;16066;0.000;0.000;2023-04-26T04:32:54;22.30;;;15.20;;
28958;SDS011;16066;0.000;0.000;2023-04-26T04:35:23;19.83;;;13.23;;
28958;SDS011;16066;0.000;0.000;2023-04-26T04:37:52;20.90;;;14.80;;
28958;SDS011;16066;0.000;0.000;2023-04-26T04:40:21;23.23;;;15.00;;
28958;SDS011;16066;0.000;0.000;2023-04-26T04:42:48;24.43;;;16.23;;
28958;SDS011;16066;0.000;0.000;2023-04-26T04:45:14;23.33;;;16.00;;
28958;SDS011;16066;0.000;0.000;2023-04-26T04:47:39;22.70;;;15.60;;
28958;SDS011;16066;0.000;0.000;2023-04-26T04:50:05;19.10;;;14.60;;
28958;SDS011;16066;0.000;0.000;2023-04-26T04:52:31;22.23;;;16.27;;
28958;SDS011;16066;0.000;0.000;2023-04-26T04:54:57;24.07;;;16.90;;
28958;SDS011;16066;0.000;0.000;2023-04-26T04:57:23;22.40;;;15.57;;
28958;SDS011;16066;0.000;0.000;2023-04-26T04:59:49;21.40;;;15.00;;
28958;SDS011;16066;0.000;0.000;2023-04-26T05:02:15;23.10;;;16.10;;
28958;SDS011;16066;0.000;0.000;2023-04-26T05:04:40;21.57;;;15.67;;
28958;SDS011;16066;0.000;0.000;2023-04-26T05:07:06;23.07;;;15.73;;
28958;SDS011;16066;0.000;0.000;2023-04-26T05:09:31;24.77;;;15.77;;
28958;SDS011;16066;0.000;0.000;2023-04-26T05:11:57;22.73;;;16.20;;
28958;SDS011;16066;0.000;0.000;2023-04-26T05:14:23;22.60;;;16.50;;
28958;SDS011;16066;0.000;0.000;2023-04-26T05:16:48;24.77;;;16.80;;
28958;SDS011;16066;0.000;0.000;2023-04-26T05:19:14;22.10;;;15.93;;
28958;SDS011;16066;0.000;0.000;2023-04-26T05:21:39;22.57;;;16.23;;
28958;SDS011;16066;0.000;0.000;2023-04-26T05:24:05;25.80;;;18.00;;
28958;SDS011;16066;0.000;0.000;2023-04-26T05:26:30;25.70;;;16.90;;
28958;SDS011;16066;0.000;0.000;2023-04-26T05:28:56;24.07;;;17.13;;
28958;SDS011;16066;0.000;0.000;2023-04-26T05:31:21;26.13;;;16.83;;
28958;SDS011;16066;0.000;0.000;2023-04-26T05:33:47;24.97;;;14.70;;
28958;SDS011;16066;0.000;0.000;2023-04-26T05:36:12;23.97;;;15.73;;
28958;SDS011;16066;0.000;0.000;2023-04-26T05:38:38;24.07;;;15.00;;
28958;SDS011;16066;0.000;0.000;2023-04-26T05:41:03;23.37;;;16.00;;
28958;SDS011;16066;0.000;0.000;2023-04-26T05:43:29;22.27;;;13.70;;
28958;SDS011;16066;0.000;0.000;2023-04-26T05:45:55;24.23;;;16.83;;
28958;SDS011;16066;0.000;0.000;2023-04-26T05:48:21;23.90;;;15.93;;
28958;SDS011;16066;0.000;0.000;2023-04-26T05:50:48;21.53;;;14.53;;
28958;SDS011;16066;0.000;0.000;2023-04-26T05:53:14;19.37;;;13.50;;
28958;SDS011;16066;0.000;0.000;2023-04-26T05:55:40;26.27;;;13.60;;
28958;SDS011;16066;0.000;0.000;2023-04-26T05:58:06;23.40;;;11.77;;
28958;SDS011;16066;0.000;0.000;2023-04-26T06:00:32;20.83;;;12.07;;
28958;SDS011;16066;0.000;0.000;2023-04-26T06:02:58;18.23;;;11.30;;
28958;SDS011;16066;0.000;0.000;2023-04-26T06:05:24;17.47;;;9.30;;
28958;SDS011;16066;0.000;0.000;2023-04-26T06:07:49;17.87;;;8.57;;
28958;SDS011;16066;0.000;0.000;2023-04-26T06:10:16;12.23;;;7.47;;
28958;SDS011;16066;0.000;0.000;2023-04-26T06:12:41;28.63;;;7.67;;
28958;SDS011;16066;0.000;0.000;2023-04-26T06:15:07;11.40;;;7.23;;
28958;SDS011;16066;0.000;0.000;2023-04-26T06:17:33;11.37;;;7.10;;
28958;SDS011;16066;0.000;0.000;2023-04-26T06:19:58;11.37;;;6.83;;
28958;SDS011;16066;0.000;0.000;2023-04-26T06:22:25;10.93;;;6.20;;
28958;SDS011;16066;0.000;0.000;2023-04-26T06:24:50;11.27;;;5.77;;
28958;SDS011;16066;0.000;0.000;2023-04-26T06:27:16;12.90;;;6.13;;
28958;SDS011;16066;0.000;0.000;2023-04-26T06:29:42;12.07;;;5.97;;
28958;SDS011;16066;0.000;0.000;2023-04-26T06:32:07;9.77;;;5.67;;
28958;SDS011;16066;0.000;0.000;2023-04-26T06:34:33;8.37;;;5.40;;
28958;SDS011;16066;0.000;0.000;2023-04-26T06:36:59;11.37;;;5.13;;
28958;SDS011;16066;0.000;0.000;2023-04-26T06:39:25;8.77;;;5.27;;
28958;SDS011;16066;0.000;0.000;2023-04-26T06:41:50;12.00;;;5.80;;
28958;SDS011;16066;0.000;0.000;2023-04-26T06:44:16;9.20;;;5.20;;
28958;SDS011;16066;0.000;0.000;2023-04-26T06:46:41;7.60;;;4.87;;
28958;SDS011;16066;0.000;0.000;2023-04-26T06:49:07;14.37;;;5.70;;
28958;SDS011;16066;0.000;0.000;2023-04-26T06:51:33;12.73;;;5.10;;
28958;SDS011;16066;0.000;0.000;2023-04-26T06:53:58;7.47;;;4.10;;
28958;SDS011;16066;0.000;0.000;2023-04-26T06:56:24;10.07;;;4.50;;
28958;SDS011;16066;0.000;0.000;2023-04-26T06:59:00;7.13;;;4.23;;
28958;SDS011;16066;0.000;0.000;2023-04-26T07:01:27;13.87;;;4.40;;
28958;SDS011;16066;0.000;0.000;2023-04-26T07:03:56;17.10;;;4.43;;
28958;SDS011;16066;0.000;0.000;2023-04-26T07:06:22;9.63;;;3.80;;
28958;SDS011;16066;0.000;0.000;2023-04-26T07:08:48;9.80;;;4.60;;
28958;SDS011;16066;0.000;0.000;2023-04-26T07:11:13;8.30;;;3.97;;
28958;SDS011;16066;0.000;0.000;2023-04-26T07:13:39;16.93;;;4.30;;
28958;SDS011;16066;0.000;0.000;2023-04-26T07:16:04;8.47;;;3.93;;
28958;SDS011;16066;0.000;0.000;2023-04-26T07:18:30;7.80;;;3.47;;
28958;SDS011;16066;0.000;0.000;2023-04-26T07:20:56;9.67;;;3.40;;
28958;SDS011;16066;0.000;0.000;2023-04-26T07:23:21;7.93;;;4.07;;
28958;SDS011;16066;0.000;0.000;2023-04-26T07:25:47;5.03;;;3.10;;
28958;SDS011;16066;0.000;0.000;2023-04-26T07:28:12;9.20;;;3.53;;
28958;SDS011;16066;0.000;0.000;2023-04-26T07:30:38;7.40;;;3.70;;
28958;SDS011;16066;0.000;0.000;2023-04-26T07:33:04;12.90;;;4.20;;
28958;SDS011;16066;0.000;0.000;2023-04-26T07:35:30;11.07;;;3.50;;
28958;SDS011;16066;0.000;0.000;2023-04-26T07:37:55;10.13;;;3.50;;
28958;SDS011;16066;0.000;0.000;2023-04-26T07:40:21;11.00;;;3.53;;
28958;SDS011;16066;0.000;0.000;2023-04-26T07:42:48;13.67;;;3.53;;
28958;SDS011;16066;0.000;0.000;2023-04-26T07:45:14;6.93;;;3.50;;
28958;SDS011;16066;0.000;0.000;2023-04-26T07:47:39;8.67;;;3.67;;
28958;SDS011;16066;0.000;0.000;2023-04-26T07:50:05;9.53;;;3.10;;
28958;SDS011;16066;0.000;0.000;2023-04-26T07:52:31;10.97;;;4.00;;
28958;SDS011;16066;0.000;0.000;2023-04-26T07:54:57;11.17;;;3.80;;
28958;SDS011;16066;0.000;0.000;2023-04-26T07:57:23;12.27;;;3.80;;
28958;SDS011;16066;0.000;0.000;2023-04-26T07:59:48;11.23;;;3.73;;
28958;SDS011;16066;0.000;0.000;2023-04-26T08:02:14;11.13;;;3.93;;
28958;SDS011;16066;0.000;0.000;2023-04-26T08:04:45;11.27;;;4.07;;
28958;SDS011;16066;0.000;0.000;2023-04-26T08:07:13;9.43;;;3.50;;
28958;SDS011;16066;0.000;0.000;2023-04-26T08:09:39;6.10;;;2.90;;
28958;SDS011;16066;0.000;0.000;2023-04-26T08:12:04;9.30;;;3.07;;
28958;SDS011;16066;0.000;0.000;2023-04-26T08:14:30;10.50;;;3.80;;
28958;SDS011;16066;0.000;0.000;2023-04-26T08:16:57;8.63;;;3.27;;
28958;SDS011;16066;0.000;0.000;2023-04-26T08:19:23;8.57;;;3.53;;
28958;SDS011;16066;0.000;0.000;2023-04-26T08:21:50;10.30;;;3.67;;
28958;SDS011;16066;0.000;0.000;2023-04-26T08:24:16;10.77;;;3.50;;
28958;SDS011;16066;0.000;0.000;2023-04-26T08:26:41;10.17;;;3.73;;
28958;SDS011;16066;0.000;0.000;2023-04-26T08:29:07;9.43;;;4.43;;
28958;SDS011;16066;0.000;0.000;2023-04-26T08:31:32;5.57;;;2.93;;
28958;SDS011;16066;0.000;0.000;2023-04-26T08:33:58;9.67;;;3.23;;
28958;SDS011;16066;0.000;0.000;2023-04-26T08:36:23;5.00;;;3.17;;
28958;SDS011;16066;0.000;0.000;2023-04-26T08:38:50;12.80;;;2.60;;
28958;SDS011;16066;0.000;0.000;2023-04-26T08:41:15;13.73;;;3.10;;
28958;SDS011;16066;0.000;0.000;2023-04-26T08:43:47;19.73;;;2.63;;
28958;SDS011;16066;0.000;0.000;2023-04-26T08:46:14;9.03;;;3.20;;
28958;SDS011;16066;0.000;0.000;2023-04-26T08:48:42;9.10;;;3.30;;
28958;SDS011;16066;0.000;0.000;2023-04-26T08:51:10;16.27;;;3.10;;
28958;SDS011;16066;0.000;0.000;2023-04-26T08:53:38;14.83;;;3.60;;
28958;SDS011;16066;0.000;0.000;2023-04-26T08:56:04;9.53;;;3.17;;
28958;SDS011;16066;0.000;0.000;2023-04-26T08:58:31;7.07;;;3.07;;
28958;SDS011;16066;0.000;0.000;2023-04-26T09:00:57;8.77;;;2.77;;
28958;SDS011;16066;0.000;0.000;2023-04-26T09:03:24;9.50;;;3.77;;
28958;SDS011;16066;0.000;0.000;2023-04-26T09:05:50;5.20;;;2.80;;
28958;SDS011;16066;0.000;0.000;2023-04-26T09:08:17;14.53;;;3.20;;
28958;SDS011;16066;0.000;0.000;2023-04-26T09:10:43;6.50;;;2.70;;
28958;SDS011;16066;0.000;0.000;2023-04-26T09:13:09;7.17;;;3.23;;
28958;SDS011;16066;0.000;0.000;2023-04-26T09:15:35;9.10;;;2.70;;
28958;SDS011;16066;0.000;0.000;2023-04-26T09:20:43;9.00;;;2.93;;
28958;SDS011;16066;0.000;0.000;2023-04-26T09:23:09;6.87;;;2.80;;
28958;SDS011;16066;0.000;0.000;2023-04-26T09:25:35;10.57;;;3.17;;
28958;SDS011;16066;0.000;0.000;2023-04-26T09:28:02;8.40;;;3.00;;
28958;SDS011;16066;0.000;0.000;2023-04-26T09:30:28;5.80;;;2.60;;
28958;SDS011;16066;0.000;0.000;2023-04-26T09:32:58;8.57;;;3.50;;
28958;SDS011;16066;0.000;0.000;2023-04-26T09:35:34;6.70;;;2.57;;
28958;SDS011;16066;0.000;0.000;2023-04-26T09:38:11;5.23;;;2.60;;
28958;SDS011;16066;0.000;0.000;2023-04-26T09:40:39;6.70;;;2.60;;
28958;SDS011;16066;0.000;0.000;2023-04-26T09:43:10;7.20;;;2.73;;
28958;SDS011;16066;0.000;0.000;2023-04-26T09:45:47;8.57;;;3.25;;
28958;SDS011;16066;0.000;0.000;2023-04-26T09:50:46;7.33;;;2.93;;
28958;SDS011;16066;0.000;0.000;2023-04-26T09:53:23;5.13;;;3.03;;
28958;SDS011;16066;0.000;0.000;2023-04-26T09:55:53;5.60;;;2.50;;
28958;SDS011;16066;0.000;0.000;2023-04-26T09:58:22;6.47;;;3.50;;
28958;SDS011;16066;0.000;0.000;2023-04-26T10:00:51;6.83;;;2.73;;
28958;SDS011;16066;0.000;0.000;2023-04-26T10:03:17;3.93;;;2.90;;
28958;SDS011;16066;0.000;0.000;2023-04-26T10:05:44;9.80;;;3.60;;
28958;SDS011;16066;0.000;0.000;2023-04-26T10:08:11;11.73;;;2.97;;
28958;SDS011;16066;0.000;0.000;2023-04-26T10:10:37;9.97;;;3.17;;
28958;SDS011;16066;0.000;0.000;2023-04-26T10:13:04;10.97;;;3.40;;
28958;SDS011;16066;0.000;0.000;2023-04-26T10:15:30;4.23;;;2.70;;
28958;SDS011;16066;0.000;0.000;2023-04-26T10:17:56;5.27;;;2.60;;
28958;SDS011;16066;0.000;0.000;2023-04-26T10:20:22;4.43;;;2.50;;
28958;SDS011;16066;0.000;0.000;2023-04-26T10:22:51;6.27;;;2.50;;
28958;SDS011;16066;0.000;0.000;2023-04-26T10:25:19;5.57;;;2.57;;
28958;SDS011;16066;0.000;0.000;2023-04-26T10:30:12;2.90;;;2.27;;
28958;SDS011;16066;0.000;0.000;2023-04-26T10:35:17;3.67;;;2.20;;
28958;SDS011;16066;0.000;0.000;2023-04-26T10:40:25;3.50;;;1.90;;
28958;SDS011;16066;0.000;0.000;2023-04-26T10:45:35;3.90;;;2.47;;
28958;SDS011;16066;0.000;0.000;2023-04-26T10:56:09;4.57;;;2.27;;
28958;SDS011;16066;0.000;0.000;2023-04-26T10:58:35;5.40;;;2.50;;
28958;SDS011;16066;0.000;0.000;2023-04-26T11:01:08;4.87;;;2.37;;
28958;SDS011;16066;0.000;0.000;2023-04-26T11:03:43;4.63;;;3.17;;
28958;SDS011;16066;0.000;0.000;2023-04-26T11:06:25;7.20;;;2.90;;
28958;SDS011;16066;0.000;0.000;2023-04-26T11:12:06;5.13;;;2.70;;
28958;SDS011;16066;0.000;0.000;2023-04-26T11:14:36;4.50;;;3.20;;
28958;SDS011;16066;0.000;0.000;2023-04-26T11:17:05;5.10;;;2.80;;
28958;SDS011;16066;0.000;0.000;2023-04-26T11:19:34;3.60;;;2.47;;
28958;SDS011;16066;0.000;0.000;2023-04-26T11:22:00;3.93;;;2.80;;
28958;SDS011;16066;0.000;0.000;2023-04-26T11:24:27;5.83;;;3.10;;
28958;SDS011;16066;0.000;0.000;2023-04-26T11:26:54;5.10;;;2.83;;
28958;SDS011;16066;0.000;0.000;2023-04-26T11:29:22;4.90;;;3.00;;
28958;SDS011;16066;0.000;0.000;2023-04-26T11:31:55;3.50;;;2.80;;
28958;SDS011;16066;0.000;0.000;2023-04-26T11:34:22;4.83;;;3.27;;
28958;SDS011;16066;0.000;0.000;2023-04-26T11:36:57;4.97;;;2.80;;
28958;SDS011;16066;0.000;0.000;2023-04-26T11:39:23;4.70;;;2.63;;
28958;SDS011;16066;0.000;0.000;2023-04-26T11:41:49;4.40;;;3.00;;
28958;SDS011;16066;0.000;0.000;2023-04-26T11:44:18;5.27;;;2.97;;
28958;SDS011;16066;0.000;0.000;2023-04-26T11:46:45;4.30;;;2.87;;
28958;SDS011;16066;0.000;0.000;2023-04-26T11:49:14;5.93;;;2.20;;
28958;SDS011;16066;0.000;0.000;2023-04-26T11:51:40;6.40;;;2.70;;
28958;SDS011;16066;0.000;0.000;2023-04-26T11:54:06;4.40;;;2.90;;
28958;SDS011;16066;0.000;0.000;2023-04-26T11:56:32;3.07;;;2.40;;
28958;SDS011;16066;0.000;0.000;2023-04-26T11:58:58;6.80;;;2.97;;
28958;SDS011;16066;0.000;0.000;2023-04-26T12:01:27;4.17;;;3.30;;
28958;SDS011;16066;0.000;0.000;2023-04-26T12:03:54;5.87;;;2.67;;
28958;SDS011;16066;0.000;0.000;2023-04-26T12:06:30;2.73;;;2.40;;
28958;SDS011;16066;0.000;0.000;2023-04-26T12:09:06;5.33;;;2.60;;
28958;SDS011;16066;0.000;0.000;2023-04-26T12:11:38;5.60;;;3.50;;
28958;SDS011;16066;0.000;0.000;2023-04-26T12:14:04;4.23;;;2.63;;
28958;SDS011;16066;0.000;0.000;2023-04-26T12:16:30;3.90;;;3.10;;
28958;SDS011;16066;0.000;0.000;2023-04-26T12:18:56;4.90;;;2.90;;
28958;SDS011;16066;0.000;0.000;2023-04-26T12:21:21;4.00;;;2.90;;
28958;SDS011;16066;0.000;0.000;2023-04-26T12:23:51;5.30;;;2.60;;
28958;SDS011;16066;0.000;0.000;2023-04-26T12:26:17;5.27;;;3.30;;
28958;SDS011;16066;0.000;0.000;2023-04-26T12:28:44;5.47;;;3.50;;
28958;SDS011;16066;0.000;0.000;2023-04-26T12:31:10;3.50;;;2.93;;
28958;SDS011;16066;0.000;0.000;2023-04-26T12:33:36;6.90;;;3.53;;
28958;SDS011;16066;0.000;0.000;2023-04-26T12:36:19;4.70;;;3.00;;
28958;SDS011;16066;0.000;0.000;2023-04-26T12:38:46;9.47;;;3.27;;
28958;SDS011;16066;0.000;0.000;2023-04-26T12:41:11;8.70;;;3.57;;
28958;SDS011;16066;0.000;0.000;2023-04-26T12:43:37;5.30;;;2.93;;
28958;SDS011;16066;0.000;0.000;2023-04-26T12:46:02;5.70;;;3.00;;
28958;SDS011;16066;0.000;0.000;2023-04-26T12:48:28;6.93;;;2.90;;
28958;SDS011;16066;0.000;0.000;2023-04-26T12:50:53;4.27;;;3.43;;
28958;SDS011;16066;0.000;0.000;2023-04-26T12:53:19;11.13;;;3.70;;
28958;SDS011;16066;0.000;0.000;2023-04-26T12:55:45;6.43;;;4.63;;
28958;SDS011;16066;0.000;0.000;2023-04-26T12:58:10;8.67;;;4.20;;
28958;SDS011;16066;0.000;0.000;2023-04-26T13:00:36;9.23;;;4.20;;
28958;SDS011;16066;0.000;0.000;2023-04-26T13:03:01;9.20;;;4.60;;
28958;SDS011;16066;0.000;0.000;2023-04-26T13:05:27;9.00;;;3.50;;
28958;SDS011;16066;0.000;0.000;2023-04-26T13:07:53;4.63;;;3.73;;
28958;SDS011;16066;0.000;0.000;2023-04-26T13:10:19;5.77;;;4.30;;
28958;SDS011;16066;0.000;0.000;2023-04-26T13:12:45;7.00;;;4.60;;
28958;SDS011;16066;0.000;0.000;2023-04-26T13:15:10;6.73;;;3.73;;
28958;SDS011;16066;0.000;0.000;2023-04-26T13:17:36;10.50;;;4.17;;
28958;SDS011;16066;0.000;0.000;2023-04-26T13:20:02;10.23;;;4.13;;
28958;SDS011;16066;0.000;0.000;2023-04-26T13:22:32;5.00;;;3.40;;
28958;SDS011;16066;0.000;0.000;2023-04-26T13:24:57;3.30;;;2.90;;
28958;SDS011;16066;0.000;0.000;2023-04-26T13:27:23;8.40;;;3.93;;
28958;SDS011;16066;0.000;0.000;2023-04-26T13:29:49;6.10;;;4.00;;
28958;SDS011;16066;0.000;0.000;2023-04-26T13:32:16;6.57;;;3.80;;
28958;SDS011;16066;0.000;0.000;2023-04-26T13:34:42;7.47;;;3.93;;
28958;SDS011;16066;0.000;0.000;2023-04-26T13:37:09;5.03;;;3.63;;
28958;SDS011;16066;0.000;0.000;2023-04-26T13:39:35;4.90;;;3.37;;
28958;SDS011;16066;0.000;0.000;2023-04-26T13:42:01;5.57;;;3.50;;
28958;SDS011;16066;0.000;0.000;2023-04-26T13:44:27;6.40;;;3.87;;
28958;SDS011;16066;0.000;0.000;2023-04-26T13:46:53;9.23;;;3.27;;
28958;SDS011;16066;0.000;0.000;2023-04-26T13:49:20;7.20;;;3.50;;
28958;SDS011;16066;0.000;0.000;2023-04-26T13:51:46;8.50;;;3.47;;
28958;SDS011;16066;0.000;0.000;2023-04-26T13:54:12;4.60;;;3.60;;
28958;SDS011;16066;0.000;0.000;2023-04-26T13:56:38;5.73;;;3.70;;
28958;SDS011;16066;0.000;0.000;2023-04-26T13:59:03;5.23;;;3.13;;
28958;SDS011;16066;0.000;0.000;2023-04-26T14:01:31;4.00;;;3.07;;
28958;SDS011;16066;0.000;0.000;2023-04-26T14:03:58;10.00;;;3.80;;
28958;SDS011;16066;0.000;0.000;2023-04-26T14:06:23;4.57;;;3.50;;
28958;SDS011;16066;0.000;0.000;2023-04-26T14:08:49;4.30;;;3.30;;
28958;SDS011;16066;0.000;0.000;2023-04-26T14:11:15;3.50;;;2.97;;
28958;SDS011;16066;0.000;0.000;2023-04-26T14:13:42;6.50;;;3.50;;
28958;SDS011;16066;0.000;0.000;2023-04-26T14:16:07;4.00;;;3.07;;
28958;SDS011;16066;0.000;0.000;2023-04-26T14:18:34;5.37;;;3.27;;
28958;SDS011;16066;0.000;0.000;2023-04-26T14:21:00;4.53;;;3.27;;
28958;SDS011;16066;0.000;0.000;2023-04-26T14:23:26;6.83;;;2.77;;
28958;SDS011;16066;0.000;0.000;2023-04-26T14:25:52;4.87;;;2.90;;
28958;SDS011;16066;0.000;0.000;2023-04-26T14:28:18;8.47;;;3.67;;
28958;SDS011;16066;0.000;0.000;2023-04-26T14:30:44;5.30;;;3.17;;
28958;SDS011;16066;0.000;0.000;2023-04-26T14:33:10;4.87;;;3.00;;
28958;SDS011;16066;0.000;0.000;2023-04-26T14:35:35;5.10;;;3.27;;
28958;SDS011;16066;0.000;0.000;2023-04-26T14:38:01;3.10;;;2.47;;
28958;SDS011;16066;0.000;0.000;2023-04-26T14:40:27;5.93;;;3.27;;
28958;SDS011;16066;0.000;0.000;2023-04-26T14:42:52;4.33;;;2.93;;
28958;SDS011;16066;0.000;0.000;2023-04-26T14:45:18;9.03;;;3.03;;
28958;SDS011;16066;0.000;0.000;2023-04-26T14:47:44;5.37;;;3.40;;
28958;SDS011;16066;0.000;0.000;2023-04-26T14:50:09;3.90;;;2.93;;
28958;SDS011;16066;0.000;0.000;2023-04-26T14:52:37;3.80;;;2.60;;
28958;SDS011;16066;0.000;0.000;2023-04-26T14:55:03;5.50;;;2.40;;
28958;SDS011;16066;0.000;0.000;2023-04-26T14:57:29;6.20;;;2.97;;
28958;SDS011;16066;0.000;0.000;2023-04-26T14:59:55;4.70;;;2.80;;
28958;SDS011;16066;0.000;0.000;2023-04-26T15:02:21;7.70;;;2.70;;
28958;SDS011;16066;0.000;0.000;2023-04-26T15:04:47;5.43;;;2.77;;
28958;SDS011;16066;0.000;0.000;2023-04-26T15:07:12;5.07;;;2.23;;
28958;SDS011;16066;0.000;0.000;2023-04-26T15:09:39;3.57;;;2.40;;
28958;SDS011;16066;0.000;0.000;2023-04-26T15:12:04;8.07;;;2.60;;